Aérodrome :
LOGIN :

S'inscrire | Disclaimer

   EN    FR    IT 

 










Légende :    VFR   VFR Marginal   IFR   IFR Intensif   IFR Très Intensif
Visi : 
Plafond : 
>= 8 km
>= 3000ft
5 à 8 km
1000 à 3000 ft
1500m à 5 km
500 à 1000 ft
800 à 1500m
200 à 500 ft
< 800m
< 200 ft
Symboles :   Orages  Brouillard  Fortes neiges  Fortes précipitations  Vent > 20 kt
SIGMETs :   Divers  Orages  Givrage  Turbulence  Onde Orograph.  Cendres Volcan.







- Altitude de l'aérodrome : 87 ft
- Code IATA : FSC
- Voir les cartes d'approche


LFKF - Figari

DERNIER METAR :
  • 240000Z AUTO 29014G26KT 240V320 CAVOK 28/16 Q1012

METARs EXPIRÉS :
  • 232330Z AUTO 30017G28KT 260V340 CAVOK 27/19 Q1013
  • 232300Z AUTO 27008KT 220V320 CAVOK 25/20 Q1013
  • 232230Z AUTO 28004KT 8000 NSC 22/21 Q1013
  • 232200Z AUTO VRB01KT CAVOK 23/21 Q1012
  • 232130Z AUTO 29003KT 240V330 9999 FEW010 SCT200 BKN220 24/22 Q1013 BECMG 24015KT

TAF TAF LFKF
Valide du 23 à 15h jusqu'au 24 à 15h UTC


231400Z 2315/2415 24015KT 9999 FEW030
BECMG 2409/2412 27020G30KT
BECMG 2412/2415 27030G40KT
Pas de NOTAMs connus pour ce terrain.



MET'MAP, la Météo Aéronautique d'un coup d'oeil ! - Copyright ORBIFLY Décembre 2007 - Disclaimer

ORBIFLY MET'MAP TEAM :

Programmation & Développement : Alexandra Zaïnal
Conception & Développement : Baudouin d'Aumeries
Co-Programmation & Développement : Marc-Olivier Méhu
Soutien technique & logistique : Manuel Goepfert

Contact : metmap@orbifly.com




SOURCES & CREDITS :

   NOAA